createdAt,value
2018-07-08T00:01:24.369Z,57.20
2018-07-08T00:03:34.276Z,57.20
2018-07-08T00:05:43.581Z,57.30
2018-07-08T00:07:54.098Z,57.30
2018-07-08T00:09:59.774Z,57.40
2018-07-08T00:14:20.523Z,57.40
2018-07-08T00:16:26.216Z,57.80
2018-07-08T00:18:41.920Z,57.80
2018-07-08T00:23:00.706Z,58.60
2018-07-08T00:27:10.523Z,59.00
2018-07-08T00:29:22.803Z,59.20
2018-07-08T00:31:27.739Z,59.80
2018-07-08T00:35:48.189Z,59.90
2018-07-08T00:37:52.331Z,59.90
2018-07-08T00:39:57.451Z,60.20
2018-07-08T00:42:01.614Z,60.30
2018-07-08T00:44:05.814Z,60.40
2018-07-08T00:46:13.266Z,60.30
2018-07-08T00:48:17.216Z,60.40
2018-07-08T00:50:21.133Z,60.40
2018-07-08T00:52:26.424Z,60.60
2018-07-08T00:54:30.538Z,60.70
2018-07-08T00:56:34.528Z,60.90
2018-07-08T00:58:40.711Z,61.00
2018-07-08T01:00:46.692Z,61.30
2018-07-08T01:02:50.659Z,62.00
2018-07-08T01:05:00.645Z,63.00
2018-07-08T01:07:06.223Z,62.30
2018-07-08T01:09:10.898Z,62.50
2018-07-08T01:13:35.748Z,63.30
2018-07-08T01:15:39.713Z,63.90
2018-07-08T01:17:44.373Z,63.80
2018-07-08T01:19:49.355Z,64.50
2018-07-08T01:21:53.868Z,64.40
2018-07-08T01:23:57.956Z,65.10
2018-07-08T01:26:08.515Z,65.20
2018-07-08T01:28:12.812Z,65.60
2018-07-08T01:30:17.345Z,65.50
2018-07-08T01:32:21.329Z,65.40
2018-07-08T01:34:25.652Z,65.80
2018-07-08T01:36:34.166Z,65.60
2018-07-08T01:38:38.848Z,65.30
2018-07-08T01:40:42.976Z,65.20
2018-07-08T01:42:47.319Z,65.00
2018-07-08T01:44:51.739Z,65.20
2018-07-08T01:46:55.975Z,64.90
2018-07-08T01:49:00.750Z,65.00
2018-07-08T01:51:05.863Z,64.60
2018-07-08T01:53:09.843Z,64.60
2018-07-08T01:55:14.825Z,64.40
2018-07-08T01:57:19.680Z,64.30
2018-07-08T01:59:23.599Z,64.20
2018-07-08T02:01:27.990Z,64.10
2018-07-08T02:03:31.900Z,64.20
2018-07-08T02:05:35.911Z,64.00
2018-07-08T02:07:40.090Z,64.00
2018-07-08T02:09:44.561Z,63.80
2018-07-08T02:11:48.553Z,63.80
2018-07-08T02:13:53.711Z,63.90
2018-07-08T02:15:57.578Z,63.90
2018-07-08T02:18:01.373Z,63.90
2018-07-08T02:20:06.629Z,63.80
2018-07-08T02:22:10.596Z,63.80
2018-07-08T02:24:17.622Z,63.60
2018-07-08T02:26:22.873Z,63.70
2018-07-08T02:28:27.373Z,63.60
2018-07-08T02:30:31.294Z,64.10
2018-07-08T02:32:35.198Z,64.30
2018-07-08T02:34:39.458Z,64.90
2018-07-08T02:36:43.288Z,64.00
2018-07-08T02:38:47.473Z,64.30
2018-07-08T02:40:51.361Z,64.10
2018-07-08T02:42:55.617Z,64.40
2018-07-08T02:45:00.009Z,64.60
2018-07-08T02:47:03.922Z,64.60
2018-07-08T02:49:07.793Z,64.70
2018-07-08T02:53:16.686Z,65.30
2018-07-08T02:55:20.584Z,64.40
2018-07-08T02:57:25.943Z,64.40
2018-07-08T02:59:29.875Z,64.30
2018-07-08T03:01:33.741Z,64.30
2018-07-08T03:03:37.635Z,64.20
2018-07-08T03:05:41.534Z,64.20
2018-07-08T03:07:45.400Z,64.50
2018-07-08T03:09:49.595Z,64.50
2018-07-08T03:11:53.490Z,64.50
2018-07-08T03:13:57.343Z,64.60
2018-07-08T03:16:01.650Z,64.80
2018-07-08T03:18:05.699Z,64.80
2018-07-08T03:20:09.865Z,64.80
2018-07-08T03:24:18.707Z,65.00
2018-07-08T03:26:23.711Z,64.90
2018-07-08T03:28:27.760Z,64.60
2018-07-08T03:30:31.666Z,64.50
2018-07-08T03:32:36.445Z,64.80
2018-07-08T03:34:40.653Z,65.30
2018-07-08T03:36:44.588Z,65.30
2018-07-08T03:38:48.458Z,65.20
2018-07-08T03:40:52.819Z,65.20
2018-07-08T03:42:57.086Z,65.20
2018-07-08T03:45:01.024Z,65.40
2018-07-08T03:47:09.234Z,65.00
2018-07-08T03:51:16.799Z,65.00
2018-07-08T03:53:21.716Z,65.40
2018-07-08T03:55:25.662Z,65.50
2018-07-08T03:57:30.393Z,65.40
2018-07-08T03:59:35.621Z,65.30
2018-07-08T04:01:39.561Z,65.30
2018-07-08T04:03:43.433Z,65.20
2018-07-08T04:05:47.647Z,64.80
2018-07-08T04:07:51.547Z,64.50
2018-07-08T04:09:56.470Z,64.20
2018-07-08T04:12:00.699Z,63.80
2018-07-08T04:14:04.599Z,63.70
2018-07-08T04:16:10.071Z,63.60
2018-07-08T04:18:15.749Z,63.20
2018-07-08T04:20:19.852Z,63.00
2018-07-08T04:22:24.182Z,62.80
2018-07-08T04:24:28.736Z,62.50
2018-07-08T04:26:32.623Z,62.10
2018-07-08T04:28:36.466Z,62.00
2018-07-08T04:30:44.496Z,61.80
2018-07-08T04:32:49.323Z,61.30
2018-07-08T04:34:53.260Z,61.40
2018-07-08T04:36:58.678Z,61.00
2018-07-08T04:39:02.605Z,60.30
2018-07-08T04:41:07.108Z,60.20
2018-07-08T04:43:11.665Z,60.00
2018-07-08T04:45:16.008Z,60.00
2018-07-08T04:49:24.423Z,60.20
2018-07-08T04:51:28.922Z,59.90
2018-07-08T04:53:32.850Z,59.60
2018-07-08T04:55:37.090Z,59.40
2018-07-08T04:57:41.015Z,59.20
2018-07-08T04:59:45.379Z,58.90
2018-07-08T05:01:49.784Z,59.00
2018-07-08T05:03:53.626Z,58.90
2018-07-08T05:05:57.776Z,58.90
2018-07-08T05:08:02.068Z,58.80
2018-07-08T05:10:05.961Z,58.90
2018-07-08T05:12:09.982Z,58.80
2018-07-08T05:14:13.947Z,58.30
2018-07-08T05:16:17.884Z,58.00
2018-07-08T05:18:22.021Z,57.80
2018-07-08T05:20:26.320Z,57.30
2018-07-08T05:22:30.204Z,57.00
2018-07-08T05:24:34.143Z,56.10
2018-07-08T05:26:39.470Z,56.30
2018-07-08T05:28:43.487Z,55.90
2018-07-08T05:30:47.462Z,55.80
2018-07-08T05:32:52.000Z,55.80
2018-07-08T05:34:55.934Z,55.80
2018-07-08T05:37:00.541Z,56.10
2018-07-08T05:39:07.144Z,56.10
2018-07-08T05:41:11.063Z,56.40
2018-07-08T05:43:14.954Z,56.60
2018-07-08T05:45:19.250Z,56.50
2018-07-08T05:47:23.193Z,56.30
2018-07-08T05:49:27.089Z,56.30
2018-07-08T05:51:34.456Z,56.40
2018-07-08T05:55:43.394Z,55.80
2018-07-08T05:57:47.649Z,55.30
2018-07-08T05:59:52.305Z,55.10
2018-07-08T06:01:58.536Z,54.70
2018-07-08T06:04:03.133Z,54.00
2018-07-08T06:06:07.244Z,53.50
2018-07-08T06:08:12.698Z,52.80
2018-07-08T06:10:18.046Z,52.70
2018-07-08T06:12:21.986Z,52.30
2018-07-08T06:14:25.820Z,52.80
2018-07-08T06:16:30.738Z,52.70
2018-07-08T06:18:34.638Z,52.70
2018-07-08T06:20:38.879Z,52.40
2018-07-08T06:22:43.944Z,51.70
2018-07-08T06:24:47.890Z,51.40
2018-07-08T06:26:52.086Z,51.00
2018-07-08T06:28:56.025Z,51.10
2018-07-08T06:31:01.316Z,51.00
2018-07-08T06:33:05.753Z,50.50
2018-07-08T06:35:10.055Z,50.60
2018-07-08T06:37:15.409Z,50.30
2018-07-08T06:39:19.799Z,50.10
2018-07-08T06:41:23.960Z,50.50
2018-07-08T06:43:27.883Z,50.40
2018-07-08T06:45:31.788Z,50.30
2018-07-08T06:47:37.860Z,51.30
2018-07-08T06:49:44.078Z,51.60
2018-07-08T06:51:47.984Z,51.70
2018-07-08T06:53:51.836Z,51.30
2018-07-08T06:55:55.732Z,50.80
2018-07-08T06:58:21.303Z,50.10
2018-07-08T07:00:26.722Z,50.20
2018-07-08T07:02:30.621Z,50.20
2018-07-08T07:04:38.246Z,49.80
2018-07-08T07:06:43.022Z,49.30
2018-07-08T07:10:52.965Z,48.60
2018-07-08T07:12:57.350Z,49.60
2018-07-08T07:15:06.421Z,49.10
2018-07-08T07:17:10.337Z,50.10
2018-07-08T07:19:16.506Z,50.50
2018-07-08T07:21:28.102Z,50.30
2018-07-08T07:23:33.493Z,50.00
2018-07-08T07:25:39.334Z,49.30
2018-07-08T07:27:48.339Z,48.70
2018-07-08T07:29:53.356Z,48.20
2018-07-08T07:32:01.771Z,47.70
2018-07-08T07:34:06.406Z,47.60
2018-07-08T07:36:10.410Z,48.20
2018-07-08T07:38:25.291Z,47.70
2018-07-08T07:42:44.200Z,46.70
2018-07-08T07:44:57.531Z,46.10
2018-07-08T07:47:04.099Z,45.50
2018-07-08T07:51:15.362Z,45.20
2018-07-08T07:53:21.541Z,44.20
2018-07-08T07:55:26.500Z,44.80
2018-07-08T07:59:37.442Z,44.30
2018-07-08T08:01:41.282Z,44.80
2018-07-08T08:03:47.403Z,44.40
2018-07-08T08:05:55.480Z,43.60
2018-07-08T08:08:00.385Z,43.40
2018-07-08T08:10:05.949Z,43.40
2018-07-08T08:12:09.810Z,43.30
2018-07-08T08:16:20.404Z,41.40
2018-07-08T08:18:25.714Z,40.70
2018-07-08T08:20:32.273Z,40.10
2018-07-08T08:22:37.716Z,40.20
2018-07-08T08:24:42.265Z,39.70
2018-07-08T08:26:49.735Z,39.10
2018-07-08T08:28:54.515Z,38.60
2018-07-08T08:31:01.150Z,39.30
2018-07-08T08:33:06.644Z,40.60
2018-07-08T08:35:20.069Z,40.60
2018-07-08T08:40:45.093Z,41.40
2018-07-08T08:42:50.561Z,40.90
2018-07-08T08:45:03.854Z,40.60
2018-07-08T08:47:11.678Z,39.80
2018-07-08T08:49:17.234Z,39.20
2018-07-08T08:51:21.151Z,39.10
2018-07-08T08:53:26.339Z,38.90
2018-07-08T08:55:35.368Z,38.80
2018-07-08T08:57:43.300Z,39.20
2018-07-08T09:00:01.571Z,38.00
2018-07-08T09:02:07.273Z,37.00
2018-07-08T09:04:12.726Z,36.50
2018-07-08T09:06:19.296Z,36.30
2018-07-08T09:08:23.226Z,37.20
2018-07-08T09:10:35.754Z,36.70
2018-07-08T09:12:41.224Z,36.00
2018-07-08T09:14:45.673Z,35.30
2018-07-08T09:16:52.308Z,34.70
2018-07-08T09:18:59.996Z,34.00
2018-07-08T09:21:11.240Z,34.50
2018-07-08T09:25:21.247Z,33.70
2018-07-08T09:27:27.162Z,33.50
2018-07-08T09:29:33.247Z,33.80
2018-07-08T09:31:40.465Z,33.10
2018-07-08T09:33:48.715Z,33.40
2018-07-08T09:35:53.824Z,32.70
2018-07-08T09:38:00.631Z,32.60
2018-07-08T09:40:06.771Z,32.90
2018-07-08T09:42:11.639Z,30.70
2018-07-08T09:44:27.207Z,30.00
2018-07-08T09:46:31.103Z,30.40
2018-07-08T09:48:35.539Z,29.90
2018-07-08T09:50:43.347Z,30.10
2018-07-08T09:52:49.266Z,29.90
2018-07-08T09:54:54.649Z,29.80
2018-07-08T09:57:02.370Z,29.80
2018-07-08T09:59:09.374Z,29.70
2018-07-08T10:01:18.740Z,29.90
2018-07-08T10:03:28.110Z,29.70
2018-07-08T10:05:33.002Z,29.80
2018-07-08T10:07:40.714Z,28.80
2018-07-08T10:09:47.153Z,28.80
2018-07-08T10:11:51.524Z,29.70
2018-07-08T10:13:58.543Z,30.40
2018-07-08T10:16:04.116Z,30.00
2018-07-08T10:18:09.219Z,29.70
2018-07-08T10:20:13.377Z,29.70
2018-07-08T10:22:18.209Z,29.40
2018-07-08T10:24:31.244Z,28.60
2018-07-08T10:26:38.298Z,29.70
2018-07-08T10:28:49.550Z,30.40
2018-07-08T10:31:02.058Z,31.10
2018-07-08T10:33:07.605Z,31.70
2018-07-08T10:35:46.408Z,31.20
2018-07-08T10:37:53.480Z,30.60
2018-07-08T10:42:08.245Z,29.50
2018-07-08T10:44:20.949Z,29.60
2018-07-08T10:46:29.048Z,29.60
2018-07-08T10:48:36.242Z,28.90
2018-07-08T10:50:41.718Z,28.50
2018-07-08T10:52:46.612Z,27.90
2018-07-08T10:56:57.730Z,28.00
2018-07-08T10:59:03.296Z,27.40
2018-07-08T11:03:27.335Z,27.60
2018-07-08T11:05:40.279Z,28.10
2018-07-08T11:07:49.728Z,28.00
2018-07-08T11:10:21.730Z,28.20
2018-07-08T11:12:28.557Z,27.90
2018-07-08T11:14:39.000Z,28.20
2018-07-08T11:16:47.843Z,28.50
2018-07-08T11:19:09.403Z,28.40
2018-07-08T11:21:19.721Z,28.20
2018-07-08T11:23:29.109Z,28.20
2018-07-08T11:25:42.527Z,27.50
2018-07-08T11:27:51.228Z,26.90
2018-07-08T11:29:58.035Z,26.80
2018-07-08T11:32:09.839Z,26.90
2018-07-08T11:34:18.509Z,27.50
2018-07-08T11:36:26.211Z,26.80
2018-07-08T11:38:36.471Z,26.20
2018-07-08T11:40:42.441Z,26.10
2018-07-08T11:43:19.152Z,25.90
2018-07-08T11:45:32.787Z,26.10
2018-07-08T11:47:40.301Z,26.00
2018-07-08T11:49:59.330Z,25.10
2018-07-08T11:52:05.607Z,25.10
2018-07-08T11:54:10.327Z,24.80
2018-07-08T11:56:16.629Z,24.00
2018-07-08T11:58:23.991Z,23.90
2018-07-08T12:00:29.274Z,24.50
2018-07-08T12:02:34.202Z,24.00
2018-07-08T12:04:40.500Z,24.60
2018-07-08T12:06:58.549Z,24.60
2018-07-08T12:09:05.691Z,23.90
2018-07-08T12:11:12.901Z,24.30
2018-07-08T12:13:18.093Z,24.20
2018-07-08T12:18:03.686Z,24.10
2018-07-08T12:20:13.409Z,24.30
2018-07-08T12:24:23.686Z,24.50
2018-07-08T12:26:28.101Z,24.10
2018-07-08T12:28:40.002Z,23.80
2018-07-08T12:30:45.206Z,24.00
2018-07-08T12:32:52.364Z,24.20
2018-07-08T12:34:58.649Z,24.80
2018-07-08T12:37:10.836Z,25.00
2018-07-08T12:39:15.156Z,24.00
2018-07-08T12:41:21.567Z,23.70
2018-07-08T12:43:31.375Z,23.40
2018-07-08T12:45:42.593Z,23.00
2018-07-08T12:47:51.805Z,22.80
2018-07-08T12:50:00.977Z,21.80
2018-07-08T12:52:08.400Z,21.90
2018-07-08T12:56:25.314Z,23.50
2018-07-08T12:58:33.481Z,23.40
2018-07-08T13:00:40.230Z,23.90
2018-07-08T13:02:50.051Z,24.10
2018-07-08T13:05:30.373Z,23.50
2018-07-08T13:07:39.322Z,23.60
2018-07-08T13:09:44.833Z,23.60
2018-07-08T13:12:10.903Z,23.40
2018-07-08T13:14:41.350Z,22.60
2018-07-08T13:16:47.792Z,22.60
2018-07-08T13:18:53.206Z,22.90
2018-07-08T13:20:59.626Z,22.70
2018-07-08T13:23:03.827Z,23.40
2018-07-08T13:25:14.015Z,22.90
2018-07-08T13:27:22.253Z,23.30
2018-07-08T13:29:31.778Z,23.50
2018-07-08T13:31:36.628Z,23.70
2018-07-08T13:33:45.910Z,24.10
2018-07-08T13:35:58.838Z,23.70
2018-07-08T13:38:04.248Z,23.50
2018-07-08T13:40:09.342Z,22.90
2018-07-08T13:42:14.913Z,22.70
2018-07-08T13:44:27.347Z,22.60
2018-07-08T13:46:31.351Z,22.30
2018-07-08T13:48:37.761Z,22.20
2018-07-08T13:50:42.748Z,22.40
2018-07-08T13:52:48.389Z,22.40
2018-07-08T13:54:54.406Z,22.40
2018-07-08T13:57:01.456Z,21.90
2018-07-08T13:59:07.441Z,22.00
2018-07-08T14:01:13.218Z,21.70
2018-07-08T14:03:24.421Z,21.90
2018-07-08T14:05:30.122Z,22.20
2018-07-08T14:07:35.365Z,22.30
2018-07-08T14:09:39.746Z,22.20
2018-07-08T14:11:53.566Z,22.10
2018-07-08T14:13:59.355Z,22.00
2018-07-08T14:16:07.294Z,21.70
2018-07-08T14:18:11.219Z,21.60
2018-07-08T14:20:16.457Z,21.30
2018-07-08T14:22:28.352Z,21.10
2018-07-08T14:24:32.438Z,20.80
2018-07-08T14:26:38.527Z,20.50
2018-07-08T14:28:43.178Z,21.40
2018-07-08T14:30:48.213Z,21.70
2018-07-08T14:32:53.179Z,21.70
2018-07-08T14:35:07.592Z,21.50
2018-07-08T14:37:13.778Z,21.20
2018-07-08T14:39:20.168Z,21.00
2018-07-08T14:41:25.390Z,20.80
2018-07-08T14:43:33.980Z,20.80
2018-07-08T14:45:43.263Z,20.40
2018-07-08T14:49:53.325Z,20.00
2018-07-08T14:54:05.080Z,20.00
2018-07-08T14:56:10.338Z,19.90
2018-07-08T14:58:17.050Z,19.90
2018-07-08T15:00:24.175Z,19.50
2018-07-08T15:02:28.029Z,19.20
2018-07-08T15:04:31.960Z,18.90
2018-07-08T15:06:35.819Z,19.10
2018-07-08T15:08:39.776Z,19.50
2018-07-08T15:10:48.827Z,19.40
2018-07-08T15:12:57.767Z,20.20
2018-07-08T15:15:03.601Z,20.50
2018-07-08T15:17:08.832Z,20.40
2018-07-08T15:19:14.077Z,20.70
2018-07-08T15:21:19.297Z,20.90
2018-07-08T15:23:25.431Z,21.30
2018-07-08T15:25:29.789Z,21.20
2018-07-08T15:27:33.751Z,21.00
2018-07-08T15:29:41.273Z,20.90
2018-07-08T15:31:48.386Z,20.80
2018-07-08T15:33:56.989Z,20.20
2018-07-08T15:36:03.929Z,19.80
2018-07-08T15:38:09.688Z,19.70
2018-07-08T15:40:15.571Z,20.10
2018-07-08T15:42:21.291Z,20.30
2018-07-08T15:44:47.748Z,20.70
2018-07-08T15:46:54.861Z,20.50
2018-07-08T15:49:00.328Z,20.50
2018-07-08T15:51:05.406Z,20.50
2018-07-08T15:53:12.745Z,20.30
2018-07-08T15:57:21.155Z,20.00
2018-07-08T15:59:32.377Z,19.80
2018-07-08T16:01:37.638Z,19.80
2018-07-08T16:03:45.759Z,20.00
2018-07-08T16:05:51.339Z,20.00
2018-07-08T16:07:57.812Z,20.50
2018-07-08T16:10:03.069Z,20.50
2018-07-08T16:12:07.213Z,20.50
2018-07-08T16:14:11.194Z,21.20
2018-07-08T16:16:15.470Z,21.20
2018-07-08T16:18:21.361Z,21.30
2018-07-08T16:20:25.394Z,21.40
2018-07-08T16:22:30.438Z,21.30
2018-07-08T16:24:34.381Z,21.00
2018-07-08T16:26:42.308Z,20.70
2018-07-08T16:28:47.606Z,20.10
2018-07-08T16:30:53.749Z,19.90
2018-07-08T16:32:58.806Z,19.80
2018-07-08T16:35:04.414Z,19.50
2018-07-08T16:37:08.971Z,19.20
2018-07-08T16:39:14.118Z,19.10
2018-07-08T16:41:18.447Z,19.20
2018-07-08T16:43:23.521Z,19.70
2018-07-08T16:45:30.723Z,20.00
2018-07-08T16:51:51.724Z,19.90
2018-07-08T16:54:02.066Z,19.70
2018-07-08T16:56:11.347Z,19.90
2018-07-08T16:58:21.358Z,20.50
2018-07-08T17:00:29.345Z,20.50
2018-07-08T17:02:39.398Z,20.60
2018-07-08T17:04:47.088Z,20.80
2018-07-08T17:07:08.719Z,20.50
2018-07-08T17:09:19.948Z,20.30
2018-07-08T17:13:28.812Z,20.60
2018-07-08T17:15:35.956Z,20.50
2018-07-08T17:17:41.516Z,20.20
2018-07-08T17:19:47.720Z,20.50
2018-07-08T17:21:55.336Z,20.70
2018-07-08T17:24:01.722Z,20.70
2018-07-08T17:26:07.342Z,20.60
2018-07-08T17:28:12.063Z,21.00
2018-07-08T17:30:18.235Z,21.10
2018-07-08T17:32:22.964Z,21.60
2018-07-08T17:34:28.603Z,21.40
2018-07-08T17:36:33.145Z,21.90
2018-07-08T17:38:41.395Z,22.30
2018-07-08T17:40:52.091Z,22.70
2018-07-08T17:42:57.826Z,23.10
2018-07-08T17:45:06.407Z,23.10
2018-07-08T17:47:14.536Z,23.10
2018-07-08T17:49:20.740Z,23.00
2018-07-08T17:51:32.591Z,23.10
2018-07-08T17:53:42.883Z,23.40
2018-07-08T17:55:48.890Z,23.60
2018-07-08T17:57:55.007Z,23.60
2018-07-08T18:00:05.080Z,24.30
2018-07-08T18:02:21.113Z,24.90
2018-07-08T18:04:28.328Z,25.40
2018-07-08T18:08:38.688Z,26.00
2018-07-08T18:11:02.841Z,25.90
2018-07-08T18:13:11.526Z,26.70
2018-07-08T18:15:17.570Z,27.80
2018-07-08T18:17:24.323Z,28.60
2018-07-08T18:19:31.304Z,29.40
2018-07-08T18:21:40.295Z,30.10
2018-07-08T18:23:44.511Z,31.20
2018-07-08T18:25:50.783Z,31.80
2018-07-08T18:27:56.187Z,32.20
2018-07-08T18:30:04.388Z,32.50
2018-07-08T18:32:09.225Z,33.10
2018-07-08T18:34:14.488Z,33.40
2018-07-08T18:36:21.783Z,33.70
2018-07-08T18:38:29.464Z,34.00
2018-07-08T18:40:36.510Z,34.40
2018-07-08T18:42:42.725Z,34.90
2018-07-08T18:44:52.038Z,35.10
2018-07-08T18:46:57.589Z,35.60
2018-07-08T18:49:05.511Z,36.20
2018-07-08T18:51:13.222Z,36.50
2018-07-08T18:53:18.465Z,36.80
2018-07-08T18:55:25.595Z,37.20
2018-07-08T18:57:31.729Z,37.50
2018-07-08T18:59:38.371Z,37.70
2018-07-08T19:01:44.147Z,37.70
2018-07-08T19:03:53.190Z,38.00
2018-07-08T19:05:58.474Z,38.20
2018-07-08T19:08:06.107Z,38.20
2018-07-08T19:10:14.273Z,38.40
2018-07-08T19:12:23.393Z,38.60
2018-07-08T19:14:38.675Z,38.80
2018-07-08T19:16:46.665Z,38.80
2018-07-08T19:21:14.141Z,39.20
2018-07-08T19:23:20.638Z,39.50
2018-07-08T19:25:36.003Z,39.60
2018-07-08T19:28:11.703Z,40.00
2018-07-08T19:30:17.279Z,40.30
2018-07-08T19:32:23.372Z,40.40
2018-07-08T19:34:29.417Z,41.20
2018-07-08T19:36:39.948Z,40.70
2018-07-08T19:40:48.990Z,41.00
2018-07-08T19:42:59.990Z,41.00
2018-07-08T19:45:09.176Z,41.40
2018-07-08T19:47:13.890Z,41.70
2018-07-08T19:49:18.743Z,41.90
2018-07-08T19:51:25.409Z,41.80
2018-07-08T19:53:31.371Z,41.90
2018-07-08T19:55:35.321Z,42.10
2018-07-08T19:57:41.757Z,42.60
2018-07-08T19:59:46.311Z,42.70
2018-07-08T20:01:54.469Z,42.90
2018-07-08T20:06:06.903Z,43.20
2018-07-08T20:08:13.662Z,43.70
2018-07-08T20:10:21.883Z,43.90
2018-07-08T20:14:33.528Z,44.70
2018-07-08T20:16:40.255Z,44.90
2018-07-08T20:18:49.426Z,45.30
2018-07-08T20:20:57.233Z,45.60
2018-07-08T20:23:03.331Z,45.90
2018-07-08T20:27:23.765Z,46.40
2018-07-08T20:29:32.823Z,46.10
2018-07-08T20:31:39.284Z,46.10
2018-07-08T20:33:47.405Z,46.40
2018-07-08T20:35:54.065Z,46.60
2018-07-08T20:38:00.838Z,46.60
2018-07-08T20:40:13.295Z,46.70
2018-07-08T20:42:22.657Z,46.80
2018-07-08T20:44:47.606Z,47.00
2018-07-08T20:47:07.439Z,47.10
2018-07-08T20:49:24.922Z,47.40
2018-07-08T20:51:42.994Z,47.70
2018-07-08T20:53:56.035Z,48.00
2018-07-08T20:56:02.291Z,48.10
2018-07-08T21:00:22.434Z,49.10
2018-07-08T21:02:29.602Z,48.50
2018-07-08T21:04:36.219Z,48.50
2018-07-08T21:06:41.368Z,48.80
2018-07-08T21:08:51.773Z,48.90
2018-07-08T21:10:58.229Z,49.00
2018-07-08T21:13:03.261Z,49.10
2018-07-08T21:15:14.100Z,49.30
2018-07-08T21:17:18.450Z,49.20
2018-07-08T21:19:23.671Z,49.20
2018-07-08T21:21:34.878Z,49.20
2018-07-08T21:23:39.779Z,49.10
2018-07-08T21:25:45.587Z,49.30
2018-07-08T21:27:50.623Z,49.20
2018-07-08T21:29:55.537Z,49.20
2018-07-08T21:32:02.177Z,49.20
2018-07-08T21:34:07.499Z,49.00
2018-07-08T21:36:12.954Z,48.80
2018-07-08T21:38:17.716Z,48.50
2018-07-08T21:40:22.469Z,48.40
2018-07-08T21:42:34.706Z,48.20
2018-07-08T21:44:50.395Z,48.20
2018-07-08T21:46:57.630Z,48.00
2018-07-08T21:49:08.330Z,47.80
2018-07-08T21:51:17.199Z,48.00
2018-07-08T21:53:26.905Z,48.20
2018-07-08T21:55:33.693Z,48.40
2018-07-08T22:02:01.520Z,47.70
2018-07-08T22:04:10.825Z,48.20
2018-07-08T22:06:19.721Z,48.20
2018-07-08T22:08:29.211Z,48.10
2018-07-08T22:10:33.631Z,48.20
2018-07-08T22:12:43.305Z,48.20
2018-07-08T22:14:48.217Z,48.00
2018-07-08T22:16:53.615Z,47.80
2018-07-08T22:18:59.408Z,47.60
2018-07-08T22:21:08.090Z,47.10
2018-07-08T22:23:29.329Z,47.20
2018-07-08T22:25:38.809Z,47.10
2018-07-08T22:27:45.306Z,47.10
2018-07-08T22:29:51.712Z,47.00
2018-07-08T22:31:59.495Z,46.90
2018-07-08T22:34:10.492Z,46.90
2018-07-08T22:36:29.430Z,46.80
2018-07-08T22:38:36.711Z,46.80
2018-07-08T22:40:42.591Z,46.80
2018-07-08T22:42:47.482Z,46.80
2018-07-08T22:44:55.537Z,46.80
2018-07-08T22:47:09.081Z,46.70
2018-07-08T22:49:15.226Z,46.50
2018-07-08T22:51:22.643Z,46.70
2018-07-08T22:53:26.591Z,46.60
2018-07-08T22:55:34.260Z,46.60
2018-07-08T22:57:40.263Z,46.60
2018-07-08T22:59:56.465Z,46.50
2018-07-08T23:02:11.384Z,46.70
2018-07-08T23:04:22.214Z,46.70
2018-07-08T23:06:37.147Z,46.70
2018-07-08T23:11:21.661Z,46.90
2018-07-08T23:13:28.952Z,46.90
2018-07-08T23:15:43.691Z,47.00
2018-07-08T23:17:52.473Z,47.10
2018-07-08T23:20:05.504Z,47.10
2018-07-08T23:22:27.609Z,47.10
2018-07-08T23:24:33.311Z,47.10
2018-07-08T23:26:40.450Z,46.90
2018-07-08T23:28:52.446Z,46.80
2018-07-08T23:31:02.291Z,46.80
2018-07-08T23:33:16.621Z,46.90
2018-07-08T23:35:22.360Z,47.00
2018-07-08T23:37:27.158Z,47.10
2018-07-08T23:39:31.515Z,47.30
2018-07-08T23:41:36.866Z,47.40
2018-07-08T23:43:43.241Z,47.50
2018-07-08T23:45:52.390Z,48.40
2018-07-08T23:47:56.619Z,47.80
2018-07-08T23:52:04.122Z,48.20
2018-07-08T23:54:09.611Z,48.40
2018-07-08T23:56:14.012Z,48.50
2018-07-08T23:58:19.104Z,48.70
